sensor_id;sensor_type;location;lat;lon;timestamp;P1;durP1;ratioP1;P2;durP2;ratioP2
73729;SDS011;62036;48.128;16.458;2022-09-13T00:00:18;3.13;;;1.95;;
73729;SDS011;62036;48.128;16.458;2022-09-13T00:02:44;2.80;;;1.80;;
73729;SDS011;62036;48.128;16.458;2022-09-13T00:05:10;2.95;;;1.98;;
73729;SDS011;62036;48.128;16.458;2022-09-13T00:07:36;3.13;;;1.85;;
73729;SDS011;62036;48.128;16.458;2022-09-13T00:10:02;2.72;;;2.20;;
73729;SDS011;62036;48.128;16.458;2022-09-13T00:12:28;2.80;;;2.10;;
73729;SDS011;62036;48.128;16.458;2022-09-13T00:14:54;3.67;;;2.38;;
73729;SDS011;62036;48.128;16.458;2022-09-13T00:17:20;2.72;;;1.90;;
73729;SDS011;62036;48.128;16.458;2022-09-13T00:19:47;3.08;;;2.05;;
73729;SDS011;62036;48.128;16.458;2022-09-13T00:22:13;2.72;;;2.08;;
73729;SDS011;62036;48.128;16.458;2022-09-13T00:24:38;3.08;;;1.50;;
73729;SDS011;62036;48.128;16.458;2022-09-13T00:27:05;2.90;;;1.90;;
73729;SDS011;62036;48.128;16.458;2022-09-13T00:29:31;2.88;;;2.20;;
73729;SDS011;62036;48.128;16.458;2022-09-13T00:31:57;3.28;;;2.17;;
73729;SDS011;62036;48.128;16.458;2022-09-13T00:34:23;2.03;;;1.80;;
73729;SDS011;62036;48.128;16.458;2022-09-13T00:36:49;2.33;;;1.85;;
73729;SDS011;62036;48.128;16.458;2022-09-13T00:39:15;3.40;;;2.05;;
73729;SDS011;62036;48.128;16.458;2022-09-13T00:41:41;2.60;;;2.40;;
73729;SDS011;62036;48.128;16.458;2022-09-13T00:46:52;2.83;;;2.25;;
73729;SDS011;62036;48.128;16.458;2022-09-13T00:49:23;3.70;;;2.10;;
73729;SDS011;62036;48.128;16.458;2022-09-13T00:51:55;3.33;;;2.25;;
73729;SDS011;62036;48.128;16.458;2022-09-13T00:54:23;2.90;;;2.15;;
73729;SDS011;62036;48.128;16.458;2022-09-13T00:56:52;2.42;;;1.92;;
73729;SDS011;62036;48.128;16.458;2022-09-13T00:59:20;3.03;;;2.22;;
73729;SDS011;62036;48.128;16.458;2022-09-13T01:01:50;2.70;;;1.90;;
73729;SDS011;62036;48.128;16.458;2022-09-13T01:04:16;4.00;;;2.60;;
73729;SDS011;62036;48.128;16.458;2022-09-13T01:06:45;3.10;;;2.38;;
73729;SDS011;62036;48.128;16.458;2022-09-13T01:09:11;2.70;;;2.03;;
73729;SDS011;62036;48.128;16.458;2022-09-13T01:11:39;3.40;;;2.20;;
73729;SDS011;62036;48.128;16.458;2022-09-13T01:14:07;4.38;;;2.13;;
73729;SDS011;62036;48.128;16.458;2022-09-13T01:16:33;2.90;;;2.17;;
73729;SDS011;62036;48.128;16.458;2022-09-13T01:18:59;2.97;;;2.55;;
73729;SDS011;62036;48.128;16.458;2022-09-13T01:29:38;3.53;;;2.35;;
73729;SDS011;62036;48.128;16.458;2022-09-13T01:40:16;2.08;;;1.38;;
73729;SDS011;62036;48.128;16.458;2022-09-13T01:47:59;3.08;;;1.65;;
73729;SDS011;62036;48.128;16.458;2022-09-13T01:52:56;2.65;;;2.03;;
73729;SDS011;62036;48.128;16.458;2022-09-13T02:00:47;4.38;;;2.40;;
73729;SDS011;62036;48.128;16.458;2022-09-13T02:03:18;2.05;;;1.73;;
73729;SDS011;62036;48.128;16.458;2022-09-13T02:05:48;2.55;;;2.20;;
73729;SDS011;62036;48.128;16.458;2022-09-13T02:08:18;3.72;;;2.45;;
73729;SDS011;62036;48.128;16.458;2022-09-13T02:10:48;3.55;;;1.92;;
73729;SDS011;62036;48.128;16.458;2022-09-13T02:13:17;4.38;;;2.42;;
73729;SDS011;62036;48.128;16.458;2022-09-13T02:15:46;3.63;;;2.17;;
73729;SDS011;62036;48.128;16.458;2022-09-13T02:20:45;3.45;;;2.08;;
73729;SDS011;62036;48.128;16.458;2022-09-13T02:23:12;3.75;;;2.20;;
73729;SDS011;62036;48.128;16.458;2022-09-13T02:25:39;3.03;;;1.98;;
73729;SDS011;62036;48.128;16.458;2022-09-13T02:28:07;3.20;;;2.58;;
73729;SDS011;62036;48.128;16.458;2022-09-13T02:30:36;4.07;;;2.67;;
73729;SDS011;62036;48.128;16.458;2022-09-13T02:33:07;3.65;;;2.80;;
73729;SDS011;62036;48.128;16.458;2022-09-13T02:38:18;3.78;;;2.42;;
73729;SDS011;62036;48.128;16.458;2022-09-13T02:40:47;4.10;;;2.22;;
73729;SDS011;62036;48.128;16.458;2022-09-13T02:43:18;3.20;;;2.00;;
73729;SDS011;62036;48.128;16.458;2022-09-13T02:45:47;3.47;;;2.20;;
73729;SDS011;62036;48.128;16.458;2022-09-13T02:48:32;2.75;;;2.08;;
73729;SDS011;62036;48.128;16.458;2022-09-13T02:51:04;3.63;;;2.20;;
73729;SDS011;62036;48.128;16.458;2022-09-13T02:53:49;2.90;;;1.80;;
73729;SDS011;62036;48.128;16.458;2022-09-13T02:56:30;3.17;;;1.92;;
73729;SDS011;62036;48.128;16.458;2022-09-13T03:01:25;2.88;;;2.03;;
73729;SDS011;62036;48.128;16.458;2022-09-13T03:03:52;2.92;;;2.05;;
73729;SDS011;62036;48.128;16.458;2022-09-13T03:06:22;4.13;;;2.20;;
73729;SDS011;62036;48.128;16.458;2022-09-13T03:08:48;3.42;;;2.42;;
73729;SDS011;62036;48.128;16.458;2022-09-13T03:11:20;4.25;;;2.10;;
73729;SDS011;62036;48.128;16.458;2022-09-13T03:13:55;3.00;;;2.15;;
73729;SDS011;62036;48.128;16.458;2022-09-13T03:29:34;2.20;;;1.90;;
73729;SDS011;62036;48.128;16.458;2022-09-13T03:37:21;3.25;;;2.42;;
73729;SDS011;62036;48.128;16.458;2022-09-13T03:39:55;3.28;;;2.13;;
73729;SDS011;62036;48.128;16.458;2022-09-13T03:42:33;2.90;;;2.25;;
73729;SDS011;62036;48.128;16.458;2022-09-13T03:45:00;2.33;;;1.88;;
73729;SDS011;62036;48.128;16.458;2022-09-13T03:47:27;3.58;;;2.58;;
73729;SDS011;62036;48.128;16.458;2022-09-13T03:49:56;3.53;;;2.80;;
73729;SDS011;62036;48.128;16.458;2022-09-13T03:52:23;3.03;;;2.42;;
73729;SDS011;62036;48.128;16.458;2022-09-13T03:54:49;3.70;;;2.53;;
73729;SDS011;62036;48.128;16.458;2022-09-13T03:57:19;2.40;;;1.92;;
73729;SDS011;62036;48.128;16.458;2022-09-13T03:59:46;4.43;;;2.10;;
73729;SDS011;62036;48.128;16.458;2022-09-13T04:02:12;4.07;;;2.85;;
73729;SDS011;62036;48.128;16.458;2022-09-13T04:04:42;3.92;;;2.35;;
73729;SDS011;62036;48.128;16.458;2022-09-13T04:07:08;4.60;;;2.45;;
73729;SDS011;62036;48.128;16.458;2022-09-13T04:09:35;2.88;;;2.25;;
73729;SDS011;62036;48.128;16.458;2022-09-13T04:12:01;3.20;;;2.22;;
73729;SDS011;62036;48.128;16.458;2022-09-13T04:14:27;2.70;;;1.70;;
73729;SDS011;62036;48.128;16.458;2022-09-13T04:16:54;2.72;;;1.80;;
73729;SDS011;62036;48.128;16.458;2022-09-13T04:19:20;3.33;;;2.50;;
73729;SDS011;62036;48.128;16.458;2022-09-13T04:21:47;4.15;;;2.28;;
73729;SDS011;62036;48.128;16.458;2022-09-13T04:24:14;3.15;;;2.30;;
73729;SDS011;62036;48.128;16.458;2022-09-13T04:26:40;2.45;;;2.03;;
73729;SDS011;62036;48.128;16.458;2022-09-13T04:29:06;3.28;;;2.20;;
73729;SDS011;62036;48.128;16.458;2022-09-13T04:31:32;3.95;;;2.30;;
73729;SDS011;62036;48.128;16.458;2022-09-13T04:33:58;2.75;;;2.10;;
73729;SDS011;62036;48.128;16.458;2022-09-13T04:36:24;3.63;;;2.60;;
73729;SDS011;62036;48.128;16.458;2022-09-13T04:38:51;2.72;;;1.77;;
73729;SDS011;62036;48.128;16.458;2022-09-13T04:41:17;3.55;;;2.55;;
73729;SDS011;62036;48.128;16.458;2022-09-13T04:43:43;3.22;;;2.20;;
73729;SDS011;62036;48.128;16.458;2022-09-13T04:46:13;3.80;;;2.35;;
73729;SDS011;62036;48.128;16.458;2022-09-13T04:48:39;3.65;;;2.28;;
73729;SDS011;62036;48.128;16.458;2022-09-13T04:51:05;3.20;;;2.30;;
73729;SDS011;62036;48.128;16.458;2022-09-13T04:53:31;3.28;;;2.47;;
73729;SDS011;62036;48.128;16.458;2022-09-13T04:56:00;3.22;;;1.92;;
73729;SDS011;62036;48.128;16.458;2022-09-13T04:58:27;2.53;;;2.17;;
73729;SDS011;62036;48.128;16.458;2022-09-13T05:00:53;3.33;;;2.10;;
73729;SDS011;62036;48.128;16.458;2022-09-13T05:03:21;2.63;;;2.17;;
73729;SDS011;62036;48.128;16.458;2022-09-13T05:05:47;3.25;;;2.10;;
73729;SDS011;62036;48.128;16.458;2022-09-13T05:08:13;3.03;;;1.90;;
73729;SDS011;62036;48.128;16.458;2022-09-13T05:10:39;3.78;;;2.60;;
73729;SDS011;62036;48.128;16.458;2022-09-13T05:13:05;3.60;;;2.60;;
73729;SDS011;62036;48.128;16.458;2022-09-13T05:15:31;6.50;;;2.92;;
73729;SDS011;62036;48.128;16.458;2022-09-13T05:17:57;3.78;;;2.80;;
73729;SDS011;62036;48.128;16.458;2022-09-13T05:20:23;4.55;;;2.78;;
73729;SDS011;62036;48.128;16.458;2022-09-13T05:22:49;3.80;;;2.30;;
73729;SDS011;62036;48.128;16.458;2022-09-13T05:25:15;4.45;;;2.95;;
73729;SDS011;62036;48.128;16.458;2022-09-13T05:27:41;4.90;;;2.58;;
73729;SDS011;62036;48.128;16.458;2022-09-13T05:30:09;3.65;;;2.72;;
73729;SDS011;62036;48.128;16.458;2022-09-13T05:32:36;3.92;;;2.60;;
73729;SDS011;62036;48.128;16.458;2022-09-13T05:35:02;5.93;;;2.92;;
73729;SDS011;62036;48.128;16.458;2022-09-13T05:37:28;4.15;;;2.67;;
73729;SDS011;62036;48.128;16.458;2022-09-13T05:39:55;4.72;;;3.22;;
73729;SDS011;62036;48.128;16.458;2022-09-13T05:42:21;4.75;;;3.38;;
73729;SDS011;62036;48.128;16.458;2022-09-13T05:44:47;3.13;;;2.58;;
73729;SDS011;62036;48.128;16.458;2022-09-13T05:47:13;8.50;;;3.00;;
73729;SDS011;62036;48.128;16.458;2022-09-13T05:49:39;4.40;;;3.10;;
73729;SDS011;62036;48.128;16.458;2022-09-13T05:52:05;4.20;;;3.08;;
73729;SDS011;62036;48.128;16.458;2022-09-13T05:54:31;3.72;;;2.60;;
73729;SDS011;62036;48.128;16.458;2022-09-13T05:56:58;4.85;;;3.05;;
73729;SDS011;62036;48.128;16.458;2022-09-13T05:59:24;4.70;;;3.33;;
73729;SDS011;62036;48.128;16.458;2022-09-13T06:01:50;5.45;;;2.92;;
73729;SDS011;62036;48.128;16.458;2022-09-13T06:04:16;5.35;;;3.30;;
73729;SDS011;62036;48.128;16.458;2022-09-13T06:06:42;4.65;;;3.38;;
73729;SDS011;62036;48.128;16.458;2022-09-13T06:09:09;5.10;;;3.35;;
73729;SDS011;62036;48.128;16.458;2022-09-13T06:11:35;5.35;;;3.63;;
73729;SDS011;62036;48.128;16.458;2022-09-13T06:14:01;6.25;;;2.97;;
73729;SDS011;62036;48.128;16.458;2022-09-13T06:16:27;5.15;;;3.53;;
73729;SDS011;62036;48.128;16.458;2022-09-13T06:18:53;4.57;;;3.63;;
73729;SDS011;62036;48.128;16.458;2022-09-13T06:21:21;5.70;;;2.90;;
73729;SDS011;62036;48.128;16.458;2022-09-13T06:23:48;5.18;;;3.42;;
73729;SDS011;62036;48.128;16.458;2022-09-13T06:26:16;4.70;;;3.42;;
73729;SDS011;62036;48.128;16.458;2022-09-13T06:28:42;5.63;;;3.55;;
73729;SDS011;62036;48.128;16.458;2022-09-13T06:31:09;5.53;;;3.30;;
73729;SDS011;62036;48.128;16.458;2022-09-13T06:33:35;4.60;;;3.67;;
73729;SDS011;62036;48.128;16.458;2022-09-13T06:36:02;4.93;;;4.10;;
73729;SDS011;62036;48.128;16.458;2022-09-13T06:38:28;4.60;;;3.33;;
73729;SDS011;62036;48.128;16.458;2022-09-13T06:41:13;5.82;;;3.63;;
73729;SDS011;62036;48.128;16.458;2022-09-13T06:43:42;6.00;;;3.60;;
73729;SDS011;62036;48.128;16.458;2022-09-13T06:46:12;4.30;;;3.38;;
73729;SDS011;62036;48.128;16.458;2022-09-13T06:48:40;6.07;;;3.50;;
73729;SDS011;62036;48.128;16.458;2022-09-13T06:51:08;4.80;;;3.42;;
73729;SDS011;62036;48.128;16.458;2022-09-13T06:53:35;5.65;;;3.35;;
73729;SDS011;62036;48.128;16.458;2022-09-13T06:56:05;5.70;;;3.63;;
73729;SDS011;62036;48.128;16.458;2022-09-13T06:58:32;4.25;;;2.72;;
73729;SDS011;62036;48.128;16.458;2022-09-13T07:01:12;4.53;;;2.65;;
73729;SDS011;62036;48.128;16.458;2022-09-13T07:03:39;4.55;;;2.70;;
73729;SDS011;62036;48.128;16.458;2022-09-13T07:06:06;5.13;;;3.25;;
73729;SDS011;62036;48.128;16.458;2022-09-13T07:08:32;5.28;;;3.22;;
73729;SDS011;62036;48.128;16.458;2022-09-13T07:10:59;4.22;;;3.17;;
73729;SDS011;62036;48.128;16.458;2022-09-13T07:13:25;5.18;;;2.80;;
73729;SDS011;62036;48.128;16.458;2022-09-13T07:15:51;5.82;;;3.08;;
73729;SDS011;62036;48.128;16.458;2022-09-13T07:18:17;3.83;;;2.58;;
73729;SDS011;62036;48.128;16.458;2022-09-13T07:20:43;3.10;;;2.40;;
73729;SDS011;62036;48.128;16.458;2022-09-13T07:23:09;4.82;;;2.30;;
73729;SDS011;62036;48.128;16.458;2022-09-13T07:25:35;3.25;;;2.33;;
73729;SDS011;62036;48.128;16.458;2022-09-13T07:28:01;3.30;;;2.17;;
73729;SDS011;62036;48.128;16.458;2022-09-13T07:30:27;4.55;;;2.70;;
73729;SDS011;62036;48.128;16.458;2022-09-13T07:32:53;3.85;;;2.70;;
73729;SDS011;62036;48.128;16.458;2022-09-13T07:35:19;4.10;;;2.67;;
73729;SDS011;62036;48.128;16.458;2022-09-13T07:37:45;4.07;;;2.85;;
73729;SDS011;62036;48.128;16.458;2022-09-13T07:40:11;4.70;;;2.63;;
73729;SDS011;62036;48.128;16.458;2022-09-13T07:42:37;5.25;;;3.03;;
73729;SDS011;62036;48.128;16.458;2022-09-13T07:45:04;3.10;;;2.45;;
73729;SDS011;62036;48.128;16.458;2022-09-13T07:47:33;2.38;;;1.77;;
73729;SDS011;62036;48.128;16.458;2022-09-13T07:49:59;2.92;;;1.75;;
73729;SDS011;62036;48.128;16.458;2022-09-13T07:52:26;4.65;;;2.33;;
73729;SDS011;62036;48.128;16.458;2022-09-13T07:54:53;2.35;;;1.80;;
73729;SDS011;62036;48.128;16.458;2022-09-13T07:57:19;2.72;;;2.00;;
73729;SDS011;62036;48.128;16.458;2022-09-13T07:59:45;2.80;;;1.77;;
73729;SDS011;62036;48.128;16.458;2022-09-13T08:02:11;2.60;;;1.67;;
73729;SDS011;62036;48.128;16.458;2022-09-13T08:04:37;2.72;;;1.70;;
73729;SDS011;62036;48.128;16.458;2022-09-13T08:07:03;2.53;;;1.65;;
73729;SDS011;62036;48.128;16.458;2022-09-13T08:09:29;2.67;;;1.65;;
73729;SDS011;62036;48.128;16.458;2022-09-13T08:11:55;1.27;;;1.17;;
73729;SDS011;62036;48.128;16.458;2022-09-13T08:14:21;1.75;;;1.55;;
73729;SDS011;62036;48.128;16.458;2022-09-13T08:16:48;1.98;;;1.52;;
73729;SDS011;62036;48.128;16.458;2022-09-13T08:19:15;1.88;;;1.38;;
73729;SDS011;62036;48.128;16.458;2022-09-13T08:21:41;1.35;;;1.17;;
73729;SDS011;62036;48.128;16.458;2022-09-13T08:24:12;1.73;;;1.20;;
73729;SDS011;62036;48.128;16.458;2022-09-13T08:26:38;2.90;;;1.52;;
73729;SDS011;62036;48.128;16.458;2022-09-13T08:29:04;1.48;;;1.20;;
73729;SDS011;62036;48.128;16.458;2022-09-13T08:31:31;4.38;;;2.25;;
73729;SDS011;62036;48.128;16.458;2022-09-13T08:33:57;3.78;;;2.30;;
73729;SDS011;62036;48.128;16.458;2022-09-13T08:36:27;2.10;;;1.45;;
73729;SDS011;62036;48.128;16.458;2022-09-13T08:38:54;2.03;;;1.13;;
73729;SDS011;62036;48.128;16.458;2022-09-13T08:44:20;1.58;;;1.00;;
73729;SDS011;62036;48.128;16.458;2022-09-13T08:46:50;1.98;;;1.40;;
73729;SDS011;62036;48.128;16.458;2022-09-13T08:49:39;2.20;;;1.50;;
73729;SDS011;62036;48.128;16.458;2022-09-13T08:54:52;2.35;;;1.10;;
73729;SDS011;62036;48.128;16.458;2022-09-13T08:57:28;1.98;;;1.08;;
73729;SDS011;62036;48.128;16.458;2022-09-13T09:07:32;1.77;;;1.27;;
73729;SDS011;62036;48.128;16.458;2022-09-13T09:10:05;2.50;;;1.20;;
73729;SDS011;62036;48.128;16.458;2022-09-13T09:15:05;2.72;;;1.52;;
73729;SDS011;62036;48.128;16.458;2022-09-13T09:18:20;1.02;;;0.95;;
73729;SDS011;62036;48.128;16.458;2022-09-13T09:22:52;1.77;;;1.40;;
73729;SDS011;62036;48.128;16.458;2022-09-13T09:25:22;2.05;;;1.65;;
73729;SDS011;62036;48.128;16.458;2022-09-13T09:27:51;1.90;;;1.40;;
73729;SDS011;62036;48.128;16.458;2022-09-13T09:30:17;2.55;;;1.40;;
73729;SDS011;62036;48.128;16.458;2022-09-13T09:38:16;1.70;;;1.30;;
73729;SDS011;62036;48.128;16.458;2022-09-13T09:40:41;2.03;;;1.30;;
73729;SDS011;62036;48.128;16.458;2022-09-13T09:43:11;1.83;;;1.52;;
73729;SDS011;62036;48.128;16.458;2022-09-13T09:45:39;1.35;;;1.17;;
73729;SDS011;62036;48.128;16.458;2022-09-13T09:48:07;1.20;;;1.10;;
73729;SDS011;62036;48.128;16.458;2022-09-13T09:50:38;1.35;;;1.20;;
73729;SDS011;62036;48.128;16.458;2022-09-13T09:53:09;1.58;;;1.20;;
73729;SDS011;62036;48.128;16.458;2022-09-13T09:55:53;2.00;;;1.45;;
73729;SDS011;62036;48.128;16.458;2022-09-13T09:58:37;1.88;;;1.40;;
73729;SDS011;62036;48.128;16.458;2022-09-13T10:01:04;1.27;;;1.17;;
73729;SDS011;62036;48.128;16.458;2022-09-13T10:03:32;1.67;;;1.33;;
73729;SDS011;62036;48.128;16.458;2022-09-13T10:06:04;2.17;;;1.35;;
73729;SDS011;62036;48.128;16.458;2022-09-13T10:08:35;1.60;;;1.38;;
73729;SDS011;62036;48.128;16.458;2022-09-13T10:11:01;1.88;;;1.38;;
73729;SDS011;62036;48.128;16.458;2022-09-13T10:13:28;1.88;;;1.17;;
73729;SDS011;62036;48.128;16.458;2022-09-13T10:15:56;1.45;;;1.23;;
73729;SDS011;62036;48.128;16.458;2022-09-13T10:18:22;1.52;;;1.27;;
73729;SDS011;62036;48.128;16.458;2022-09-13T10:23:25;1.77;;;1.27;;
73729;SDS011;62036;48.128;16.458;2022-09-13T10:26:00;1.95;;;1.52;;
73729;SDS011;62036;48.128;16.458;2022-09-13T10:28:27;1.55;;;1.00;;
73729;SDS011;62036;48.128;16.458;2022-09-13T10:31:02;2.08;;;1.42;;
73729;SDS011;62036;48.128;16.458;2022-09-13T10:33:30;2.20;;;1.75;;
73729;SDS011;62036;48.128;16.458;2022-09-13T10:35:57;2.22;;;1.55;;
73729;SDS011;62036;48.128;16.458;2022-09-13T10:38:31;1.75;;;0.95;;
73729;SDS011;62036;48.128;16.458;2022-09-13T10:40:57;1.27;;;1.17;;
73729;SDS011;62036;48.128;16.458;2022-09-13T10:43:25;1.33;;;1.10;;
73729;SDS011;62036;48.128;16.458;2022-09-13T10:45:52;1.70;;;1.30;;
73729;SDS011;62036;48.128;16.458;2022-09-13T10:48:19;2.35;;;1.40;;
73729;SDS011;62036;48.128;16.458;2022-09-13T10:51:07;1.00;;;0.90;;
73729;SDS011;62036;48.128;16.458;2022-09-13T10:53:40;1.48;;;1.20;;
73729;SDS011;62036;48.128;16.458;2022-09-13T10:56:20;2.22;;;1.30;;
73729;SDS011;62036;48.128;16.458;2022-09-13T10:58:46;1.25;;;0.98;;
73729;SDS011;62036;48.128;16.458;2022-09-13T11:01:28;1.42;;;0.90;;
73729;SDS011;62036;48.128;16.458;2022-09-13T11:07:02;2.03;;;1.13;;
73729;SDS011;62036;48.128;16.458;2022-09-13T11:09:34;1.50;;;1.20;;
73729;SDS011;62036;48.128;16.458;2022-09-13T11:12:10;2.30;;;1.30;;
73729;SDS011;62036;48.128;16.458;2022-09-13T11:22:25;2.45;;;1.38;;
73729;SDS011;62036;48.128;16.458;2022-09-13T11:32:48;1.77;;;1.17;;
73729;SDS011;62036;48.128;16.458;2022-09-13T11:45:48;1.80;;;1.00;;
73729;SDS011;62036;48.128;16.458;2022-09-13T11:55:57;1.52;;;1.13;;
73729;SDS011;62036;48.128;16.458;2022-09-13T11:58:26;1.90;;;1.45;;
73729;SDS011;62036;48.128;16.458;2022-09-13T12:00:57;2.80;;;1.40;;
73729;SDS011;62036;48.128;16.458;2022-09-13T12:05:50;1.55;;;1.42;;
73729;SDS011;62036;48.128;16.458;2022-09-13T12:08:18;2.00;;;0.95;;
73729;SDS011;62036;48.128;16.458;2022-09-13T12:10:51;7.13;;;3.97;;
73729;SDS011;62036;48.128;16.458;2022-09-13T12:13:31;2.17;;;1.58;;
73729;SDS011;62036;48.128;16.458;2022-09-13T12:16:09;1.40;;;1.15;;
73729;SDS011;62036;48.128;16.458;2022-09-13T12:18:41;1.17;;;1.00;;
73729;SDS011;62036;48.128;16.458;2022-09-13T12:21:15;1.85;;;1.25;;
73729;SDS011;62036;48.128;16.458;2022-09-13T12:29:14;1.30;;;0.90;;
73729;SDS011;62036;48.128;16.458;2022-09-13T12:31:42;2.03;;;1.10;;
73729;SDS011;62036;48.128;16.458;2022-09-13T12:34:10;1.23;;;1.13;;
73729;SDS011;62036;48.128;16.458;2022-09-13T12:39:33;1.83;;;0.80;;
73729;SDS011;62036;48.128;16.458;2022-09-13T12:42:15;1.70;;;1.23;;
73729;SDS011;62036;48.128;16.458;2022-09-13T12:45:01;1.20;;;1.10;;
73729;SDS011;62036;48.128;16.458;2022-09-13T12:47:43;1.38;;;0.90;;
73729;SDS011;62036;48.128;16.458;2022-09-13T12:58:27;1.60;;;1.10;;
73729;SDS011;62036;48.128;16.458;2022-09-13T13:03:21;1.15;;;1.00;;
73729;SDS011;62036;48.128;16.458;2022-09-13T13:05:50;1.60;;;1.08;;
73729;SDS011;62036;48.128;16.458;2022-09-13T13:10:44;0.85;;;0.65;;
73729;SDS011;62036;48.128;16.458;2022-09-13T13:13:29;1.58;;;1.17;;
73729;SDS011;62036;48.128;16.458;2022-09-13T13:15:58;2.00;;;1.10;;
73729;SDS011;62036;48.128;16.458;2022-09-13T13:23:35;0.80;;;0.80;;
73729;SDS011;62036;48.128;16.458;2022-09-13T13:36:24;1.25;;;1.00;;
73729;SDS011;62036;48.128;16.458;2022-09-13T13:38:53;1.25;;;1.05;;
73729;SDS011;62036;48.128;16.458;2022-09-13T13:46:48;1.27;;;0.90;;
73729;SDS011;62036;48.128;16.458;2022-09-13T14:10:21;1.48;;;0.90;;
73729;SDS011;62036;48.128;16.458;2022-09-13T14:12:57;2.17;;;1.00;;
73729;SDS011;62036;48.128;16.458;2022-09-13T14:15:32;0.95;;;0.80;;
73729;SDS011;62036;48.128;16.458;2022-09-13T14:18:08;1.15;;;0.90;;
73729;SDS011;62036;48.128;16.458;2022-09-13T14:20:37;1.38;;;0.77;;
73729;SDS011;62036;48.128;16.458;2022-09-13T14:23:10;2.25;;;1.08;;
73729;SDS011;62036;48.128;16.458;2022-09-13T14:25:36;1.63;;;0.80;;
73729;SDS011;62036;48.128;16.458;2022-09-13T14:28:02;1.05;;;0.90;;
73729;SDS011;62036;48.128;16.458;2022-09-13T14:30:34;1.10;;;0.93;;
73729;SDS011;62036;48.128;16.458;2022-09-13T14:33:00;1.63;;;1.10;;
73729;SDS011;62036;48.128;16.458;2022-09-13T14:37:55;1.00;;;0.90;;
73729;SDS011;62036;48.128;16.458;2022-09-13T14:40:23;1.33;;;1.10;;
73729;SDS011;62036;48.128;16.458;2022-09-13T14:42:50;1.40;;;1.15;;
73729;SDS011;62036;48.128;16.458;2022-09-13T14:45:30;1.48;;;1.00;;
73729;SDS011;62036;48.128;16.458;2022-09-13T14:48:11;1.02;;;0.85;;
73729;SDS011;62036;48.128;16.458;2022-09-13T14:50:53;2.50;;;1.10;;
73729;SDS011;62036;48.128;16.458;2022-09-13T14:53:23;1.75;;;1.10;;
73729;SDS011;62036;48.128;16.458;2022-09-13T14:58:18;1.23;;;0.90;;
73729;SDS011;62036;48.128;16.458;2022-09-13T15:00:58;1.33;;;1.17;;
73729;SDS011;62036;48.128;16.458;2022-09-13T15:03:25;1.52;;;1.23;;
73729;SDS011;62036;48.128;16.458;2022-09-13T15:05:52;1.80;;;1.10;;
73729;SDS011;62036;48.128;16.458;2022-09-13T15:11:00;1.75;;;1.00;;
73729;SDS011;62036;48.128;16.458;2022-09-13T15:13:27;1.13;;;1.00;;
73729;SDS011;62036;48.128;16.458;2022-09-13T15:15:53;1.58;;;1.25;;
73729;SDS011;62036;48.128;16.458;2022-09-13T15:21:12;1.02;;;0.93;;
73729;SDS011;62036;48.128;16.458;2022-09-13T15:23:37;1.40;;;1.30;;
73729;SDS011;62036;48.128;16.458;2022-09-13T15:28:36;1.15;;;1.05;;
73729;SDS011;62036;48.128;16.458;2022-09-13T15:31:19;1.30;;;1.13;;
73729;SDS011;62036;48.128;16.458;2022-09-13T15:33:46;2.03;;;1.27;;
73729;SDS011;62036;48.128;16.458;2022-09-13T15:36:13;1.27;;;1.02;;
73729;SDS011;62036;48.128;16.458;2022-09-13T15:38:55;1.35;;;0.98;;
73729;SDS011;62036;48.128;16.458;2022-09-13T15:41:26;1.13;;;1.00;;
73729;SDS011;62036;48.128;16.458;2022-09-13T15:43:52;1.52;;;1.17;;
73729;SDS011;62036;48.128;16.458;2022-09-13T15:46:18;1.20;;;1.08;;
73729;SDS011;62036;48.128;16.458;2022-09-13T15:51:43;1.10;;;1.00;;
73729;SDS011;62036;48.128;16.458;2022-09-13T15:54:09;1.20;;;1.10;;
73729;SDS011;62036;48.128;16.458;2022-09-13T15:56:37;1.88;;;1.00;;
73729;SDS011;62036;48.128;16.458;2022-09-13T15:59:06;1.60;;;1.17;;
73729;SDS011;62036;48.128;16.458;2022-09-13T16:01:32;1.92;;;1.35;;
73729;SDS011;62036;48.128;16.458;2022-09-13T16:03:58;1.60;;;1.30;;
73729;SDS011;62036;48.128;16.458;2022-09-13T16:06:27;1.42;;;1.02;;
73729;SDS011;62036;48.128;16.458;2022-09-13T16:08:53;0.98;;;0.88;;
73729;SDS011;62036;48.128;16.458;2022-09-13T16:11:19;1.17;;;0.77;;
73729;SDS011;62036;48.128;16.458;2022-09-13T16:13:45;0.88;;;0.73;;
73729;SDS011;62036;48.128;16.458;2022-09-13T16:16:14;1.00;;;0.75;;
73729;SDS011;62036;48.128;16.458;2022-09-13T16:18:40;1.15;;;0.90;;
73729;SDS011;62036;48.128;16.458;2022-09-13T16:21:06;1.15;;;0.90;;
73729;SDS011;62036;48.128;16.458;2022-09-13T16:23:32;1.52;;;0.80;;
73729;SDS011;62036;48.128;16.458;2022-09-13T16:25:58;2.35;;;1.35;;
73729;SDS011;62036;48.128;16.458;2022-09-13T16:28:25;1.45;;;1.13;;
73729;SDS011;62036;48.128;16.458;2022-09-13T16:30:51;1.67;;;1.38;;
73729;SDS011;62036;48.128;16.458;2022-09-13T16:33:18;1.23;;;0.93;;
73729;SDS011;62036;48.128;16.458;2022-09-13T16:35:44;1.48;;;1.10;;
73729;SDS011;62036;48.128;16.458;2022-09-13T16:38:11;1.33;;;1.00;;
73729;SDS011;62036;48.128;16.458;2022-09-13T16:40:38;1.70;;;1.17;;
73729;SDS011;62036;48.128;16.458;2022-09-13T16:43:05;0.95;;;0.88;;
73729;SDS011;62036;48.128;16.458;2022-09-13T16:45:31;2.10;;;1.23;;
73729;SDS011;62036;48.128;16.458;2022-09-13T16:47:57;1.52;;;1.40;;
73729;SDS011;62036;48.128;16.458;2022-09-13T16:50:23;2.05;;;1.30;;
73729;SDS011;62036;48.128;16.458;2022-09-13T16:52:49;1.27;;;0.88;;
73729;SDS011;62036;48.128;16.458;2022-09-13T16:55:15;1.15;;;1.00;;
73729;SDS011;62036;48.128;16.458;2022-09-13T16:57:41;1.40;;;0.90;;
73729;SDS011;62036;48.128;16.458;2022-09-13T17:00:09;1.65;;;1.10;;
73729;SDS011;62036;48.128;16.458;2022-09-13T17:02:36;1.58;;;1.25;;
73729;SDS011;62036;48.128;16.458;2022-09-13T17:05:03;1.50;;;1.25;;
73729;SDS011;62036;48.128;16.458;2022-09-13T17:07:31;1.42;;;1.23;;
73729;SDS011;62036;48.128;16.458;2022-09-13T17:09:58;1.70;;;1.38;;
73729;SDS011;62036;48.128;16.458;2022-09-13T17:12:24;4.03;;;2.28;;
73729;SDS011;62036;48.128;16.458;2022-09-13T17:14:51;2.25;;;1.65;;
73729;SDS011;62036;48.128;16.458;2022-09-13T17:17:19;4.95;;;2.20;;
73729;SDS011;62036;48.128;16.458;2022-09-13T17:19:45;2.88;;;1.73;;
73729;SDS011;62036;48.128;16.458;2022-09-13T17:22:11;1.92;;;1.27;;
73729;SDS011;62036;48.128;16.458;2022-09-13T17:24:37;2.80;;;1.45;;
73729;SDS011;62036;48.128;16.458;2022-09-13T17:27:04;1.45;;;1.35;;
73729;SDS011;62036;48.128;16.458;2022-09-13T17:29:31;1.48;;;1.20;;
73729;SDS011;62036;48.128;16.458;2022-09-13T17:31:57;1.90;;;1.70;;
73729;SDS011;62036;48.128;16.458;2022-09-13T17:34:24;1.55;;;1.45;;
73729;SDS011;62036;48.128;16.458;2022-09-13T17:36:50;1.80;;;1.35;;
73729;SDS011;62036;48.128;16.458;2022-09-13T17:39:16;2.85;;;1.63;;
73729;SDS011;62036;48.128;16.458;2022-09-13T17:41:43;1.42;;;0.90;;
73729;SDS011;62036;48.128;16.458;2022-09-13T17:44:09;2.22;;;1.30;;
73729;SDS011;62036;48.128;16.458;2022-09-13T17:46:36;1.40;;;1.30;;
73729;SDS011;62036;48.128;16.458;2022-09-13T17:49:02;2.08;;;1.48;;
73729;SDS011;62036;48.128;16.458;2022-09-13T17:51:30;1.92;;;1.40;;
73729;SDS011;62036;48.128;16.458;2022-09-13T17:54:00;1.85;;;1.35;;
73729;SDS011;62036;48.128;16.458;2022-09-13T17:56:28;1.35;;;1.10;;
73729;SDS011;62036;48.128;16.458;2022-09-13T17:58:55;1.50;;;1.20;;
73729;SDS011;62036;48.128;16.458;2022-09-13T18:01:21;2.60;;;1.27;;
73729;SDS011;62036;48.128;16.458;2022-09-13T18:03:47;1.67;;;1.30;;